Time;durP1;ratioP1;P1;durP2;ratioP2;P2;SDS_P1;SDS_P2;PMS_P1;PMS_P2;Temp;Humidity;BMP_temperature;BMP_pressure;BME280_temperature;BME280_humidity;BME280_pressure;Samples;Min_cycle;Max_cycle;Signal;HPM_P1;HPM_P2
2022/09/02 00:01:22;;;;;;;;;;;;;;;18.10;100.00;99452.25;5040630;28;19952;-75
2022/09/02 00:03:50;;;;;;;;;;;;;;;18.14;100.00;99452.13;5074877;28;19925;-75
2022/09/02 00:06:17;;;;;;;;;;;;;;;18.22;100.00;99448.53;5074961;28;19963;-75
2022/09/02 00:08:44;;;;;;;;;;;;;;;18.49;100.00;99448.69;5057049;28;20390;-75
2022/09/02 00:11:13;;;;;;;;;;;;;;;18.55;100.00;99443.19;5057233;28;20352;-75
2022/09/02 00:13:40;;;;;;;;;;;;;;;18.38;100.00;99445.50;5074777;28;19946;-75
2022/09/02 00:16:09;;;;;;;;;;;;;;;18.31;100.00;99434.44;5074788;28;19924;-75
2022/09/02 00:18:38;;;;;;;;;;;;;;;18.06;100.00;99433.88;5040454;28;21435;-75
2022/09/02 00:21:05;;;;;;;;;;;;;;;18.05;100.00;99435.94;5074764;28;19924;-75
2022/09/02 00:23:32;;;;;;;;;;;;;;;18.03;100.00;99429.94;5057232;28;19928;-75
2022/09/02 00:26:00;;;;;;;;;;;;;;;17.82;100.00;99427.97;5056778;28;19929;-75
2022/09/02 00:28:27;;;;;;;;;;;;;;;17.89;100.00;99422.81;5074628;28;20386;-75
2022/09/02 00:30:54;;;;;;;;;;;;;;;18.05;100.00;99427.44;5055821;28;19982;-75
2022/09/02 00:33:21;;;;;;;;;;;;;;;18.05;100.00;99418.97;5038921;28;19998;-75
2022/09/02 00:35:49;;;;;;;;;;;;;;;17.94;100.00;99412.94;5038396;28;19925;-75
2022/09/02 00:38:16;;;;;;;;;;;;;;;17.89;100.00;99407.88;5038517;28;20300;-75
2022/09/02 00:40:45;;;;;;;;;;;;;;;17.98;100.00;99416.41;5038424;28;19925;-75
2022/09/02 00:43:22;;;;;;;;;;;;;;;17.94;100.00;99415.78;5055081;28;19931;-75
2022/09/02 00:45:49;;;;;;;;;;;;;;;18.08;100.00;99405.94;5054735;28;19924;-75
2022/09/02 00:48:16;;;;;;;;;;;;;;;18.20;100.00;99410.69;5039035;28;20532;-75
2022/09/02 00:50:43;;;;;;;;;;;;;;;17.99;100.00;99407.47;5039842;28;20371;-75
2022/09/02 00:53:12;;;;;;;;;;;;;;;18.14;100.00;99402.03;5056279;28;19931;-75
2022/09/02 00:55:43;;;;;;;;;;;;;;;18.24;100.00;99394.34;5040027;28;20352;-75
2022/09/02 00:58:19;;;;;;;;;;;;;;;18.24;100.00;99392.31;5056420;28;19931;-75
2022/09/02 01:00:48;;;;;;;;;;;;;;;18.07;100.00;99388.16;5039570;28;19940;-75
2022/09/02 01:03:16;;;;;;;;;;;;;;;18.24;100.00;99371.72;5074158;28;19924;-75
2022/09/02 01:05:47;;;;;;;;;;;;;;;18.22;100.00;99377.84;5056384;28;20311;-75
2022/09/02 01:08:19;;;;;;;;;;;;;;;18.08;100.00;99369.16;5056215;28;19925;-75
2022/09/02 01:10:47;;;;;;;;;;;;;;;18.06;100.00;99375.28;5056306;28;19989;-75
2022/09/02 01:13:15;;;;;;;;;;;;;;;18.06;100.00;99378.13;5073402;28;19928;-75
2022/09/02 01:15:45;;;;;;;;;;;;;;;18.26;100.00;99370.00;5039321;28;19929;-75
2022/09/02 01:18:13;;;;;;;;;;;;;;;18.34;100.00;99371.28;5056118;28;19956;-75
2022/09/02 01:20:41;;;;;;;;;;;;;;;18.43;100.00;99374.16;5074138;28;20370;-75
2022/09/02 01:23:08;;;;;;;;;;;;;;;18.36;100.00;99368.75;5039607;28;19925;-75
2022/09/02 01:25:38;;;;;;;;;;;;;;;18.18;100.00;99362.28;5073997;28;19931;-75
2022/09/02 01:28:07;;;;;;;;;;;;;;;18.25;100.00;99357.09;5073904;28;19928;-75
2022/09/02 01:30:35;;;;;;;;;;;;;;;18.19;100.00;99364.63;5055738;28;19925;-75
2022/09/02 01:33:03;;;;;;;;;;;;;;;18.29;100.00;99362.63;5022716;28;20309;-75
2022/09/02 01:35:30;;;;;;;;;;;;;;;18.17;100.00;99349.41;5056003;28;20425;-75
2022/09/02 01:37:58;;;;;;;;;;;;;;;18.42;100.00;99361.25;5073740;28;19939;-75
2022/09/02 01:40:27;;;;;;;;;;;;;;;18.46;100.00;99359.06;5073768;28;20011;-75
2022/09/02 01:43:15;;;;;;;;;;;;;;;18.42;100.00;99352.75;5056037;28;19956;-76
2022/09/02 01:45:46;;;;;;;;;;;;;;;18.32;100.00;99356.03;5055958;28;20371;-76
2022/09/02 01:48:14;;;;;;;;;;;;;;;18.36;100.00;99362.34;5039132;28;19924;-76
2022/09/02 01:50:45;;;;;;;;;;;;;;;18.46;100.00;99344.94;5039499;28;19924;-76
2022/09/02 01:53:13;;;;;;;;;;;;;;;18.45;100.00;99349.00;5039184;28;19925;-76
2022/09/02 01:55:40;;;;;;;;;;;;;;;18.31;100.00;99341.09;5039272;28;19984;-76
2022/09/02 01:58:07;;;;;;;;;;;;;;;18.14;100.00;99339.03;5055452;28;19931;-76
2022/09/02 02:00:35;;;;;;;;;;;;;;;18.21;100.00;99331.03;5056000;28;19925;-76
2022/09/02 02:03:02;;;;;;;;;;;;;;;18.16;100.00;99337.28;5055889;28;19924;-76
2022/09/02 02:05:30;;;;;;;;;;;;;;;18.29;100.00;99335.13;5055745;28;19924;-76
2022/09/02 02:07:58;;;;;;;;;;;;;;;18.28;100.00;99327.88;5055768;28;19931;-76
2022/09/02 02:10:25;;;;;;;;;;;;;;;18.24;100.00;99318.78;5055131;28;19951;-76
2022/09/02 02:12:52;;;;;;;;;;;;;;;17.95;100.00;99309.91;5038522;28;20348;-76
2022/09/02 02:15:21;;;;;;;;;;;;;;;18.10;100.00;99312.94;5039095;28;19924;-76
2022/09/02 02:17:49;;;;;;;;;;;;;;;18.17;100.00;99304.94;5039038;28;20321;-76
2022/09/02 02:20:17;;;;;;;;;;;;;;;18.16;100.00;99311.84;5055428;28;19931;-76
2022/09/02 02:22:45;;;;;;;;;;;;;;;18.15;100.00;99306.66;5055488;28;20450;-76
2022/09/02 02:25:13;;;;;;;;;;;;;;;18.02;100.00;99304.75;5059055;28;19928;-76
2022/09/02 02:27:41;;;;;;;;;;;;;;;18.12;100.00;99299.91;5042200;28;19924;-76
2022/09/02 02:30:10;;;;;;;;;;;;;;;18.22;100.00;99306.38;5058818;28;19924;-76
2022/09/02 02:32:39;;;;;;;;;;;;;;;18.24;100.00;99298.19;5057685;28;19943;-76
2022/09/02 02:35:06;;;;;;;;;;;;;;;18.43;100.00;99294.16;5040909;28;19924;-76
2022/09/02 02:37:33;;;;;;;;;;;;;;;18.38;100.00;99287.06;5057402;28;19928;-76
2022/09/02 02:40:00;;;;;;;;;;;;;;;18.31;100.00;99286.56;5024663;28;19935;-76
2022/09/02 02:42:29;;;;;;;;;;;;;;;18.18;100.00;99295.19;5057671;28;20023;-76
2022/09/02 02:44:57;;;;;;;;;;;;;;;18.18;100.00;99295.19;5057485;28;19929;-76
2022/09/02 02:47:25;;;;;;;;;;;;;;;18.28;100.00;99291.09;5057655;28;19929;-76
2022/09/02 02:49:52;;;;;;;;;;;;;;;18.44;100.00;99285.19;5058747;28;20645;-76
2022/09/02 02:52:20;;;;;;;;;;;;;;;18.26;100.00;99281.53;5058609;28;19928;-76
2022/09/02 02:54:47;;;;;;;;;;;;;;;18.25;100.00;99283.56;5076381;28;19924;-76
2022/09/02 02:57:14;;;;;;;;;;;;;;;18.17;100.00;99279.50;5058170;28;19925;-76
2022/09/02 02:59:41;;;;;;;;;;;;;;;18.33;100.00;99273.53;5076376;28;19930;-76
2022/09/02 03:02:11;;;;;;;;;;;;;;;18.35;100.00;99281.53;5041829;28;20377;-76
2022/09/02 03:04:38;;;;;;;;;;;;;;;18.27;100.00;99285.91;5058452;28;20383;-76
2022/09/02 03:07:06;;;;;;;;;;;;;;;18.36;100.00;99281.06;5041762;28;20406;-76
2022/09/02 03:09:34;;;;;;;;;;;;;;;18.32;100.00;99276.81;5041810;28;20011;-76
2022/09/02 03:12:01;;;;;;;;;;;;;;;18.33;100.00;99272.72;5075941;28;19932;-76
2022/09/02 03:14:30;;;;;;;;;;;;;;;18.31;100.00;99270.38;5058246;28;20249;-76
2022/09/02 03:16:57;;;;;;;;;;;;;;;18.18;100.00;99272.56;5058170;28;19924;-76
2022/09/02 03:19:24;;;;;;;;;;;;;;;18.15;100.00;99270.69;5057873;28;20249;-76
2022/09/02 03:21:52;;;;;;;;;;;;;;;18.23;100.00;99266.31;5058147;28;19928;-76
2022/09/02 03:24:19;;;;;;;;;;;;;;;18.18;100.00;99255.59;5058223;28;19974;-76
2022/09/02 03:26:46;;;;;;;;;;;;;;;18.06;100.00;99265.00;5075579;28;19924;-76
2022/09/02 03:29:14;;;;;;;;;;;;;;;17.82;100.00;99258.38;5057861;28;19926;-76
2022/09/02 03:31:43;;;;;;;;;;;;;;;17.97;100.00;99267.84;5057830;28;19928;-76
2022/09/02 03:34:10;;;;;;;;;;;;;;;18.11;100.00;99260.78;5057771;28;19924;-76
2022/09/02 03:36:38;;;;;;;;;;;;;;;17.96;100.00;99264.22;5040549;28;19970;-76
2022/09/02 03:39:09;;;;;;;;;;;;;;;17.82;100.00;99253.53;5057782;28;20314;-76
2022/09/02 03:41:41;;;;;;;;;;;;;;;17.92;100.00;99254.31;5057780;28;19924;-76
2022/09/02 03:44:10;;;;;;;;;;;;;;;17.94;100.00;99254.63;5041008;28;19970;-76
2022/09/02 03:46:38;;;;;;;;;;;;;;;18.10;100.00;99265.63;5057340;28;19931;-76
2022/09/02 03:49:06;;;;;;;;;;;;;;;18.12;100.00;99253.84;5057505;28;19924;-76
2022/09/02 03:51:33;;;;;;;;;;;;;;;18.10;100.00;99253.56;5057320;28;20023;-76
2022/09/02 03:54:02;;;;;;;;;;;;;;;17.99;100.00;99248.38;5057050;28;19928;-76
2022/09/02 03:56:30;;;;;;;;;;;;;;;18.02;100.00;99247.44;5057339;28;19925;-76
2022/09/02 03:58:57;;;;;;;;;;;;;;;18.10;100.00;99243.03;5057504;28;19956;-76
2022/09/02 04:01:26;;;;;;;;;;;;;;;18.19;100.00;99243.03;5057663;28;20288;-76
2022/09/02 04:03:54;;;;;;;;;;;;;;;18.12;100.00;99236.91;5057117;28;19935;-76
2022/09/02 04:06:23;;;;;;;;;;;;;;;18.23;100.00;99238.03;5040559;28;19960;-76
2022/09/02 04:08:53;;;;;;;;;;;;;;;18.36;100.00;99238.63;5056928;28;19928;-76
2022/09/02 04:11:21;;;;;;;;;;;;;;;18.36;100.00;99230.16;5057099;28;20031;-76
2022/09/02 04:13:52;;;;;;;;;;;;;;;18.06;100.00;99236.75;5040467;28;19974;-76
2022/09/02 04:16:27;;;;;;;;;;;;;;;18.19;100.00;99233.78;5056990;28;20409;-76
2022/09/02 04:19:00;;;;;;;;;;;;;;;18.13;100.00;99230.78;5074526;28;19928;-76
2022/09/02 04:21:30;;;;;;;;;;;;;;;18.20;100.00;99230.47;5056817;28;19978;-76
2022/09/02 04:23:58;;;;;;;;;;;;;;;18.25;100.00;99227.00;5056563;28;20349;-76
2022/09/02 04:26:25;;;;;;;;;;;;;;;18.34;100.00;99217.75;5040104;28;19924;-76
2022/09/02 04:28:54;;;;;;;;;;;;;;;18.34;100.00;99209.25;5056761;28;19946;-76
2022/09/02 04:31:28;;;;;;;;;;;;;;;18.46;100.00;99214.78;5056589;28;20035;-76
2022/09/02 04:33:57;;;;;;;;;;;;;;;18.41;100.00;99215.41;5056572;28;19925;-76
2022/09/02 04:36:25;;;;;;;;;;;;;;;18.40;100.00;99216.69;5056621;28;20287;-76
2022/09/02 04:38:55;;;;;;;;;;;;;;;18.28;100.00;99217.56;5056292;28;19932;-76
2022/09/02 04:41:27;;;;;;;;;;;;;;;18.19;100.00;99211.91;5056667;28;20030;-76
2022/09/02 04:43:58;;;;;;;;;;;;;;;18.11;100.00;99213.50;5056672;28;19967;-76
2022/09/02 04:46:30;;;;;;;;;;;;;;;18.24;100.00;99219.78;5056026;28;20330;-76
2022/09/02 04:48:58;;;;;;;;;;;;;;;18.24;100.00;99214.13;5055941;28;19924;-76
2022/09/02 04:51:26;;;;;;;;;;;;;;;18.26;100.00;99213.66;5056442;28;20380;-76
2022/09/02 04:53:57;;;;;;;;;;;;;;;18.21;100.00;99212.25;5040091;28;19932;-76
2022/09/02 04:56:26;;;;;;;;;;;;;;;18.20;100.00;99213.50;5056233;28;19924;-76
2022/09/02 04:58:54;;;;;;;;;;;;;;;18.20;100.00;99207.84;5039831;28;19924;-76
2022/09/02 05:01:24;;;;;;;;;;;;;;;18.11;100.00;99222.00;5056457;28;19924;-76
2022/09/02 05:03:54;;;;;;;;;;;;;;;18.21;100.00;99208.63;5039672;28;20027;-76
2022/09/02 05:06:27;;;;;;;;;;;;;;;18.02;100.00;99205.03;5055803;28;20019;-76
2022/09/02 05:08:59;;;;;;;;;;;;;;;18.06;100.00;99207.66;5054604;28;19924;-76
2022/09/02 05:11:30;;;;;;;;;;;;;;;18.02;100.00;99202.97;5056048;28;19924;-76
2022/09/02 05:13:59;;;;;;;;;;;;;;;17.99;100.00;99206.72;5073795;28;19931;-76
2022/09/02 05:16:29;;;;;;;;;;;;;;;18.05;100.00;99206.91;5055887;28;19924;-76
2022/09/02 05:18:57;;;;;;;;;;;;;;;18.03;100.00;99215.06;5049003;28;19925;-76
2022/09/02 05:21:30;;;;;;;;;;;;;;;18.07;100.00;99210.03;5032432;28;19972;-76
2022/09/02 05:23:59;;;;;;;;;;;;;;;18.00;100.00;99210.34;5032584;28;20031;-76
2022/09/02 05:26:26;;;;;;;;;;;;;;;17.93;100.00;99207.84;5016063;28;19926;-76
2022/09/02 05:28:53;;;;;;;;;;;;;;;17.98;100.00;99212.84;5032567;28;19933;-76
2022/09/02 05:31:20;;;;;;;;;;;;;;;18.07;100.00;99215.69;5032509;28;19935;-76
2022/09/02 05:33:48;;;;;;;;;;;;;;;17.84;100.00;99219.13;5032455;28;20300;-76
2022/09/02 05:36:20;;;;;;;;;;;;;;;17.85;100.00;99217.88;5032275;28;19925;-76
2022/09/02 05:38:48;;;;;;;;;;;;;;;17.87;100.00;99212.53;5032320;28;19926;-76
2022/09/02 05:41:18;;;;;;;;;;;;;;;17.78;100.00;99206.88;5033647;28;19948;-76
2022/09/02 05:43:47;;;;;;;;;;;;;;;17.93;100.00;99208.59;5032465;28;19983;-76
2022/09/02 05:46:16;;;;;;;;;;;;;;;18.02;100.00;99202.19;5032355;28;19933;-76
2022/09/02 05:51:43;;;;;;;;;;;;;;;17.69;100.00;99209.69;5032170;28;20436;-76
2022/09/02 05:54:13;;;;;;;;;;;;;;;17.94;100.00;99210.19;5032266;28;19925;-76
2022/09/02 05:56:42;;;;;;;;;;;;;;;18.03;100.00;99215.06;5032203;28;19925;-76
2022/09/02 05:59:09;;;;;;;;;;;;;;;18.10;100.00;99211.91;5017868;28;19932;-80
2022/09/02 06:01:37;;;;;;;;;;;;;;;17.74;100.00;99220.34;5003321;28;19932;-76
2022/09/02 06:04:05;;;;;;;;;;;;;;;17.79;100.00;99211.28;5036104;28;19929;-76
2022/09/02 06:06:33;;;;;;;;;;;;;;;17.88;100.00;99208.47;5035840;28;19925;-76
2022/09/02 06:09:03;;;;;;;;;;;;;;;18.10;100.00;99206.25;5035945;28;19964;-76
2022/09/02 06:11:30;;;;;;;;;;;;;;;18.13;100.00;99213.81;5036097;28;19926;-76
2022/09/02 06:13:58;;;;;;;;;;;;;;;17.88;100.00;99203.59;5035837;28;19975;-76
2022/09/02 06:16:25;;;;;;;;;;;;;;;18.05;100.00;99212.56;5019444;28;19925;-76
2022/09/02 06:18:53;;;;;;;;;;;;;;;17.98;100.00;99209.25;5041134;28;19932;-76
2022/09/02 06:21:20;;;;;;;;;;;;;;;18.02;100.00;99207.06;5059206;28;20279;-76
2022/09/02 06:23:50;;;;;;;;;;;;;;;18.06;100.00;99207.66;5059114;28;20039;-76
2022/09/02 06:26:19;;;;;;;;;;;;;;;18.07;100.00;99204.38;5026162;28;19924;-76
2022/09/02 06:28:45;;;;;;;;;;;;;;;17.98;100.00;99200.78;5058965;28;19987;-76
2022/09/02 06:31:16;;;;;;;;;;;;;;;18.22;100.00;99202.50;5058841;28;19944;-76
2022/09/02 06:33:44;;;;;;;;;;;;;;;18.23;100.00;99201.25;5058617;28;19929;-76
2022/09/02 06:36:15;;;;;;;;;;;;;;;18.40;100.00;99196.09;5058892;28;19971;-76
2022/09/02 06:38:43;;;;;;;;;;;;;;;18.08;100.00;99191.03;5058729;28;19974;-76
2022/09/02 06:41:13;;;;;;;;;;;;;;;18.29;100.00;99199.38;5041808;28;19994;-76
2022/09/02 06:43:42;;;;;;;;;;;;;;;18.29;100.00;99192.91;5058818;28;19929;-76
2022/09/02 06:46:19;;;;;;;;;;;;;;;18.16;100.00;99195.13;5058677;28;19931;-76
2022/09/02 06:48:49;;;;;;;;;;;;;;;18.29;100.00;99192.91;5041723;28;20371;-76
2022/09/02 06:51:21;;;;;;;;;;;;;;;18.05;100.00;99189.94;5058658;28;19932;-76
2022/09/02 06:53:52;;;;;;;;;;;;;;;18.26;100.00;99189.00;5076370;28;19947;-76
2022/09/02 06:56:23;;;;;;;;;;;;;;;18.27;100.00;99179.25;5041841;28;19963;-75
2022/09/02 06:58:50;;;;;;;;;;;;;;;18.04;100.00;99177.03;5042140;28;19944;-74
2022/09/02 07:01:18;;;;;;;;;;;;;;;18.12;100.00;99172.66;5058453;28;19924;-74
2022/09/02 07:06:35;;;;;;;;;;;;;;;18.19;100.00;99169.50;5058459;28;19924;-73
2022/09/02 07:09:08;;;;;;;;;;;;;;;18.25;100.00;99167.59;5058412;28;19958;-73
2022/09/02 07:11:37;;;;;;;;;;;;;;;18.43;100.00;99153.50;5057234;28;20361;-73
2022/09/02 07:14:05;;;;;;;;;;;;;;;18.57;100.00;99164.13;5061088;28;20295;-72
2022/09/02 07:16:35;;;;;;;;;;;;;;;18.68;100.00;99158.78;5058454;28;20031;-74
2022/09/02 07:19:03;;;;;;;;;;;;;;;18.55;100.00;99166.66;5057754;28;19924;-75
2022/09/02 07:21:31;;;;;;;;;;;;;;;18.44;100.00;99157.09;5058152;28;19931;-74
2022/09/02 07:23:59;;;;;;;;;;;;;;;18.45;100.00;99162.28;5041502;28;19925;-72
2022/09/02 07:26:27;;;;;;;;;;;;;;;18.31;100.00;99157.22;5041680;28;19931;-73
2022/09/02 07:28:54;;;;;;;;;;;;;;;18.35;100.00;99163.53;5041560;28;19974;-76
2022/09/02 07:31:23;;;;;;;;;;;;;;;18.37;100.00;99155.41;5061840;28;19929;-76
2022/09/02 07:33:52;;;;;;;;;;;;;;;18.35;100.00;99157.88;5057886;28;20356;-76
2022/09/02 07:36:21;;;;;;;;;;;;;;;18.39;100.00;99155.69;5058330;28;20287;-75
2022/09/02 07:38:57;;;;;;;;;;;;;;;18.37;100.00;99146.91;5040949;28;20010;-76
2022/09/02 07:41:25;;;;;;;;;;;;;;;18.42;100.00;99157.56;5074018;28;20283;-76
2022/09/02 07:43:53;;;;;;;;;;;;;;;18.38;100.00;99151.28;5056972;28;20662;-76
2022/09/02 07:46:23;;;;;;;;;;;;;;;18.15;100.00;99142.63;5073495;28;19924;-76
2022/09/02 07:48:50;;;;;;;;;;;;;;;18.06;100.00;99149.09;5073204;28;19932;-76
2022/09/02 07:51:18;;;;;;;;;;;;;;;18.15;100.00;99149.09;5073895;28;19928;-76
2022/09/02 07:53:46;;;;;;;;;;;;;;;18.22;100.00;99154.41;5073315;28;19924;-77
2022/09/02 07:56:16;;;;;;;;;;;;;;;18.07;100.00;99147.81;5073473;28;20295;-76
2022/09/02 07:58:44;;;;;;;;;;;;;;;18.38;100.00;99145.63;5091949;28;20027;-77
2022/09/02 08:01:13;;;;;;;;;;;;;;;18.01;100.00;99161.03;5072851;28;19931;-77
2022/09/02 08:03:40;;;;;;;;;;;;;;;18.14;100.00;99158.84;5073071;28;19924;-75
2022/09/02 08:06:10;;;;;;;;;;;;;;;18.01;100.00;99166.69;5054333;28;19959;-75
2022/09/02 08:08:39;;;;;;;;;;;;;;;18.15;100.00;99166.06;5039787;28;19929;-77
2022/09/02 08:11:07;;;;;;;;;;;;;;;18.42;100.00;99154.72;5052809;28;20402;-76
2022/09/02 08:13:37;;;;;;;;;;;;;;;18.46;100.00;99158.22;5071331;28;19924;-76
2022/09/02 08:16:04;;;;;;;;;;;;;;;18.56;100.00;99156.91;5070708;28;19925;-76
2022/09/02 08:18:32;;;;;;;;;;;;;;;18.48;100.00;99150.00;5070557;28;20701;-76
2022/09/02 08:20:59;;;;;;;;;;;;;;;18.60;100.00;99148.28;5070605;28;20310;-79
2022/09/02 08:23:26;;;;;;;;;;;;;;;18.63;100.00;99150.91;5036842;28;19932;-76
2022/09/02 08:26:03;;;;;;;;;;;;;;;18.53;100.00;99152.22;5053083;28;19928;-77
2022/09/02 08:28:30;;;;;;;;;;;;;;;18.65;100.00;99153.28;5070447;28;19924;-76
2022/09/02 08:30:58;;;;;;;;;;;;;;;18.64;100.00;99146.84;5070378;28;20014;-76
2022/09/02 08:33:25;;;;;;;;;;;;;;;18.73;100.00;99143.97;5070044;28;19924;-77
2022/09/02 08:35:52;;;;;;;;;;;;;;;19.05;100.00;99131.88;5085100;28;19928;-76
2022/09/02 08:38:21;;;;;;;;;;;;;;;19.24;100.00;99127.69;5091049;28;19931;-75
2022/09/02 08:40:49;;;;;;;;;;;;;;;19.31;100.00;99127.38;5089977;28;19955;-77
2022/09/02 08:43:24;;;;;;;;;;;;;;;19.34;100.00;99126.41;5071976;28;20374;-76
2022/09/02 08:45:53;;;;;;;;;;;;;;;19.39;100.00;99128.59;5055077;28;20371;-77
2022/09/02 08:48:33;;;;;;;;;;;;;;;19.26;100.00;99119.53;5072785;28;20069;-75
2022/09/02 08:51:03;;;;;;;;;;;;;;;19.56;100.00;99109.91;5072695;28;19931;-76
2022/09/02 08:53:34;;;;;;;;;;;;;;;19.70;100.00;99114.81;5073074;28;19931;-75
2022/09/02 08:56:03;;;;;;;;;;;;;;;19.45;100.00;99114.53;5090206;28;19931;-76
2022/09/02 08:58:37;;;;;;;;;;;;;;;19.48;100.00;99114.38;5089640;28;20290;-76
2022/09/02 09:01:19;;;;;;;;;;;;;;;19.58;100.00;99107.34;5055292;28;20371;-76
2022/09/02 09:04:02;;;;;;;;;;;;;;;19.79;100.00;99110.34;5072101;28;20008;-75
2022/09/02 09:06:29;;;;;;;;;;;;;;;19.27;100.00;99103.31;5072037;28;19924;-75
2022/09/02 09:09:06;;;;;;;;;;;;;;;19.38;100.00;99101.53;5055442;28;20367;-76
2022/09/02 09:11:48;;;;;;;;;;;;;;;19.78;100.00;99100.28;5055643;28;20025;-75
2022/09/02 09:14:39;;;;;;;;;;;;;;;19.85;100.00;99097.06;5055425;28;19932;-77
2022/09/02 09:17:13;;;;;;;;;;;;;;;19.64;100.00;99088.41;5089949;28;19959;-75
2022/09/02 09:19:43;;;;;;;;;;;;;;;19.66;100.00;99085.09;5089786;28;20363;-77
2022/09/02 09:22:13;;;;;;;;;;;;;;;19.51;100.00;99082.22;5071821;28;19932;-78
2022/09/02 09:24:43;;;;;;;;;;;;;;;20.22;100.00;99072.81;5072910;28;19947;-78
2022/09/02 09:27:14;;;;;;;;;;;;;;;20.22;100.00;99067.91;5055672;28;19928;-78
2022/09/02 09:29:41;;;;;;;;;;;;;;;20.16;100.00;99069.09;5090043;28;19993;-78
2022/09/02 09:32:18;;;;;;;;;;;;;;;19.73;100.00;99072.59;5055424;28;19967;-76
2022/09/02 09:34:51;;;;;;;;;;;;;;;20.88;100.00;99071.88;5089303;28;19928;-76
2022/09/02 09:37:27;;;;;;;;;;;;;;;21.08;100.00;99062.66;5072582;28;19924;-77
2022/09/02 09:39:59;;;;;;;;;;;;;;;21.03;100.00;99063.34;5072429;28;20375;-77
2022/09/02 09:42:36;;;;;;;;;;;;;;;20.99;100.00;99065.63;5038630;28;20005;-77
2022/09/02 09:45:14;;;;;;;;;;;;;;;20.89;100.00;99055.59;5090196;28;19928;-76
2022/09/02 09:47:41;;;;;;;;;;;;;;;21.24;100.00;99059.25;5090199;28;19974;-79
2022/09/02 09:50:10;;;;;;;;;;;;;;;21.15;100.00;99059.38;5089847;28;19924;-78
2022/09/02 09:52:38;;;;;;;;;;;;;;;21.22;100.00;99039.84;5055367;28;19928;-76
2022/09/02 09:55:04;;;;;;;;;;;;;;;21.37;100.00;99031.28;5071968;28;20747;-76
2022/09/02 09:57:31;;;;;;;;;;;;;;;21.53;100.00;99029.91;5089229;28;19928;-77
2022/09/02 10:00:01;;;;;;;;;;;;;;;21.19;100.00;99023.00;5090232;28;20382;-77
2022/09/02 10:02:45;;;;;;;;;;;;;;;21.64;100.00;99025.16;5089955;28;19978;-76
2022/09/02 10:05:17;;;;;;;;;;;;;;;21.45;100.00;99021.03;5090050;28;19924;-76
2022/09/02 10:07:53;;;;;;;;;;;;;;;21.65;100.00;99014.53;5055843;28;19928;-77
2022/09/02 10:10:21;;;;;;;;;;;;;;;21.49;100.00;99018.78;5055575;28;19928;-77
2022/09/02 10:12:50;;;;;;;;;;;;;;;21.40;100.00;99007.56;5071601;28;19924;-77
2022/09/02 10:15:23;;;;;;;;;;;;;;;21.84;100.00;98996.69;5055015;28;19924;-80
2022/09/02 10:18:00;;;;;;;;;;;;;;;21.61;100.00;99000.56;5072586;28;19963;-77
2022/09/02 10:20:49;;;;;;;;;;;;;;;21.60;100.00;99001.81;5055428;28;19924;-77
2022/09/02 10:23:31;;;;;;;;;;;;;;;21.03;100.00;99009.38;5089928;28;19924;-77
2022/09/02 10:26:01;;;;;;;;;;;;;;;20.83;100.00;99012.16;5088909;28;19924;-78
2022/09/02 10:28:47;;;;;;;;;;;;;;;21.28;100.00;99015.13;5071490;28;20030;-77
2022/09/02 10:31:17;;;;;;;;;;;;;;;21.08;100.00;99017.97;5089448;28;19924;-78
2022/09/02 10:33:54;;;;;;;;;;;;;;;20.72;100.00;99014.84;5089531;28;19924;-78
2022/09/02 10:36:40;;;;;;;;;;;;;;;20.72;100.00;99014.84;5071727;28;19924;-77
2022/09/02 10:39:15;;;;;;;;;;;;;;;21.31;100.00;99004.84;5088943;28;19930;-77
2022/09/02 10:41:46;;;;;;;;;;;;;;;21.28;100.00;99003.78;5088995;28;19924;-77
2022/09/02 10:44:43;;;;;;;;;;;;;;;21.58;100.00;99000.78;5054961;28;19924;-79
2022/09/02 10:47:16;;;;;;;;;;;;;;;21.70;100.00;99008.94;5074854;28;20005;-76
2022/09/02 10:50:07;;;;;;;;;;;;;;;22.18;100.00;98995.75;5074511;28;20015;-76
2022/09/02 10:52:40;;;;;;;;;;;;;;;22.66;100.00;98984.50;5068684;28;19924;-76
2022/09/02 10:55:07;;;;;;;;;;;;;;;23.01;100.00;98982.91;5092549;28;19924;-76
2022/09/02 10:57:49;;;;;;;;;;;;;;;23.08;100.00;98981.66;5092132;28;19928;-77
2022/09/02 11:00:18;;;;;;;;;;;;;;;22.68;100.00;98971.31;5074388;28;20374;-77
2022/09/02 11:03:00;;;;;;;;;;;;;;;22.19;100.00;98977.38;5091934;28;19964;-76
2022/09/02 11:05:32;;;;;;;;;;;;;;;22.60;100.00;98967.38;5074159;28;20367;-76
2022/09/02 11:07:59;;;;;;;;;;;;;;;22.82;100.00;98953.28;5092458;28;19931;-76
2022/09/02 11:10:33;;;;;;;;;;;;;;;22.86;100.00;98953.81;5092839;28;19924;-76
2022/09/02 11:13:13;;;;;;;;;;;;;;;23.17;100.00;98945.16;5058184;28;20330;-76
2022/09/02 11:15:46;;;;;;;;;;;;;;;22.67;100.00;98951.91;5092712;28;19962;-76
2022/09/02 11:18:32;;;;;;;;;;;;;;;21.96;100.00;98961.38;5092328;28;19947;-76
2022/09/02 11:21:07;;;;;;;;;;;;;;;21.64;100.00;98953.28;5092672;28;19924;-76
2022/09/02 11:23:40;;;;;;;;;;;;;;;21.07;100.00;98967.31;5092270;28;19924;-76
2022/09/02 11:26:10;;;;;;;;;;;;;;;20.77;100.00;98957.34;5056346;28;20402;-76
2022/09/02 11:28:56;;;;;;;;;;;;;;;21.20;100.00;98951.47;5091141;28;19955;-76
2022/09/02 11:31:31;;;;;;;;;;;;;;;21.61;100.00;98943.69;5092104;28;19928;-76
2022/09/02 11:34:02;;;;;;;;;;;;;;;22.05;100.00;98934.84;5091732;28;19930;-77
2022/09/02 11:36:39;;;;;;;;;;;;;;;22.56;100.00;98934.72;5091261;28;20469;-77
2022/09/02 11:43:01;;;;;;;;;;;;;;;22.96;100.00;98906.72;5072904;28;19924;-78
2022/09/02 11:45:55;;;;;;;;;;;;;;;22.18;100.00;98910.38;5091251;28;20310;-77
2022/09/02 11:48:49;;;;;;;;;;;;;;;22.59;100.00;98908.88;5074332;28;20632;-77
2022/09/02 11:51:28;;;;;;;;;;;;;;;23.03;100.00;98894.88;5073061;28;20326;-77
2022/09/02 11:53:55;;;;;;;;;;;;;;;22.77;100.00;98902.75;5090808;28;19924;-76
2022/09/02 11:56:41;;;;;;;;;;;;;;;23.08;100.00;98896.94;5073153;28;19924;-77
2022/09/02 11:59:18;;;;;;;;;;;;;;;22.87;100.00;98892.69;5090077;28;19938;-76
2022/09/02 12:01:50;;;;;;;;;;;;;;;23.11;100.00;98881.66;5072509;28;19928;-77
2022/09/02 12:04:19;;;;;;;;;;;;;;;23.17;100.00;98887.41;5091278;28;19924;-77
2022/09/02 12:07:07;;;;;;;;;;;;;;;23.38;100.00;98888.00;5072270;28;19924;-77
2022/09/02 12:09:45;;;;;;;;;;;;;;;23.36;100.00;98882.81;5091279;28;19924;-81
2022/09/02 12:12:31;;;;;;;;;;;;;;;22.78;100.00;98881.53;5092011;28;20417;-81
2022/09/02 12:14:58;;;;;;;;;;;;;;;23.33;100.00;98878.13;5090736;28;20008;-79
2022/09/02 12:17:38;;;;;;;;;;;;;;;23.47;100.00;98876.34;5087684;28;19923;-79
2022/09/02 12:20:09;;;;;;;;;;;;;;;22.88;100.00;98865.78;5072903;28;19924;-78
2022/09/02 12:22:37;;;;;;;;;;;;;;;22.46;100.00;98877.19;5069007;28;20745;-79
2022/09/02 12:25:27;;;;;;;;;;;;;;;23.19;100.00;98864.09;5054978;28;20510;-78
2022/09/02 12:28:13;;;;;;;;;;;;;;;23.29;100.00;98856.88;5073874;28;20444;-77
2022/09/02 12:31:13;;;;;;;;;;;;;;;23.77;100.00;98846.84;5094649;28;19924;-78
2022/09/02 12:33:48;;;;;;;;;;;;;;;23.78;100.00;98856.94;5076611;28;19924;-77
2022/09/02 12:36:34;;;;;;;;;;;;;;;23.93;100.00;98851.00;5094058;28;19924;-77
2022/09/02 12:39:20;;;;;;;;;;;;;;;24.31;100.00;98858.78;5094668;28;19924;-77
2022/09/02 12:42:06;;;;;;;;;;;;;;;24.11;100.00;98864.75;5094538;28;19924;-77
2022/09/02 12:44:38;;;;;;;;;;;;;;;23.94;100.00;98859.03;5076515;28;20326;-77
2022/09/02 12:47:13;;;;;;;;;;;;;;;24.11;100.00;98851.25;5094571;28;20406;-77
2022/09/02 12:49:59;;;;;;;;;;;;;;;24.26;100.00;98846.06;5076682;28;19924;-77
2022/09/02 12:52:41;;;;;;;;;;;;;;;24.30;100.00;98840.84;5059636;28;19928;-77
2022/09/02 12:55:12;;;;;;;;;;;;;;;24.17;100.00;98839.84;5094410;28;19928;-77
2022/09/02 12:57:40;;;;;;;;;;;;;;;24.38;100.00;98835.38;5094451;28;19924;-77
2022/09/02 13:00:12;;;;;;;;;;;;;;;24.72;100.00;98831.13;5059720;28;19924;-77
2022/09/02 13:02:42;;;;;;;;;;;;;;;24.85;100.00;98828.50;5059423;28;20359;-77
2022/09/02 13:05:15;;;;;;;;;;;;;;;24.87;100.00;98823.03;5058385;28;19950;-76